Time;durP1;ratioP1;P1;durP2;ratioP2;P2;SDS_P1;SDS_P2;PMS_P1;PMS_P2;Temp;Humidity;BMP_temperature;BMP_pressure;BME280_temperature;BME280_humidity;BME280_pressure;Samples;Min_cycle;Max_cycle;Signal;HPM_P1;HPM_P2
2022/01/11 00:01:00;;;;;;;14.50;6.10;;;;;;;;;;5029415;28;20029;-73
2022/01/11 00:03:26;;;;;;;14.52;6.82;;;;;;;;;;5031545;28;20026;-73
2022/01/11 00:05:58;;;;;;;13.10;6.95;;;;;;;;;;5033454;28;20034;-73
2022/01/11 00:08:32;;;;;;;22.52;8.02;;;;;;;;;;5030535;28;20025;-73
2022/01/11 00:11:04;;;;;;;22.05;9.32;;;;;;;;;;5030308;28;20013;-73
2022/01/11 00:13:34;;;;;;;19.95;9.18;;;;;;;;;;5030456;28;20033;-73
2022/01/11 00:16:01;;;;;;;22.02;6.72;;;;;;;;;;5030360;28;20017;-73
2022/01/11 00:18:27;;;;;;;19.63;9.02;;;;;;;;;;5031307;28;20030;-73
2022/01/11 00:20:54;;;;;;;16.77;6.63;;;;;;;;;;5032165;28;20458;-73
2022/01/11 00:25:51;;;;;;;12.48;6.60;;;;;;;;;;5029479;28;20475;-72
2022/01/11 00:28:18;;;;;;;19.30;7.63;;;;;;;;;;5028635;28;20029;-71
2022/01/11 00:30:46;;;;;;;20.33;7.72;;;;;;;;;;5029978;28;20499;-72
2022/01/11 00:33:17;;;;;;;19.05;7.60;;;;;;;;;;5031995;28;20033;-73
2022/01/11 00:35:57;;;;;;;22.60;8.02;;;;;;;;;;5030770;28;20030;-73
2022/01/11 00:38:24;;;;;;;12.45;5.68;;;;;;;;;;5029860;28;20029;-72
2022/01/11 00:40:52;;;;;;;8.48;3.72;;;;;;;;;;5029244;28;20048;-72
2022/01/11 00:43:20;;;;;;;9.18;2.95;;;;;;;;;;5029417;28;20029;-73
2022/01/11 00:45:47;;;;;;;9.88;3.95;;;;;;;;;;5028456;28;20107;-73
2022/01/11 00:48:13;;;;;;;12.88;3.50;;;;;;;;;;5031862;28;20402;-72
2022/01/11 00:50:39;;;;;;;23.67;9.75;;;;;;;;;;5030761;28;20052;-73
2022/01/11 00:53:07;;;;;;;16.98;6.03;;;;;;;;;;5029573;28;20237;-73
2022/01/11 00:55:34;;;;;;;17.77;6.57;;;;;;;;;;5029003;28;20033;-72
2022/01/11 00:58:04;;;;;;;10.50;5.85;;;;;;;;;;5029379;28;20509;-71
2022/01/11 01:00:30;;;;;;;13.43;6.90;;;;;;;;;;5030269;28;20018;-72
2022/01/11 01:02:57;;;;;;;16.13;6.13;;;;;;;;;;5031901;28;20497;-73
2022/01/11 01:05:23;;;;;;;9.98;5.10;;;;;;;;;;5029157;28;20028;-73
2022/01/11 01:07:50;;;;;;;13.00;6.43;;;;;;;;;;5027963;28;20375;-72
2022/01/11 01:10:26;;;;;;;16.17;7.32;;;;;;;;;;5028745;28;20498;-73
2022/01/11 01:12:54;;;;;;;12.45;6.18;;;;;;;;;;5029056;28;20028;-73
2022/01/11 01:15:21;;;;;;;17.58;7.13;;;;;;;;;;5031090;28;20022;-73
2022/01/11 01:17:48;;;;;;;16.77;6.97;;;;;;;;;;5030423;28;20031;-73
2022/01/11 01:20:14;;;;;;;13.05;6.13;;;;;;;;;;5028998;28;20075;-73
2022/01/11 01:22:41;;;;;;;19.02;8.25;;;;;;;;;;5030065;28;20032;-73
2022/01/11 01:25:08;;;;;;;22.98;9.38;;;;;;;;;;5028972;28;20022;-71
2022/01/11 01:27:34;;;;;;;16.25;7.68;;;;;;;;;;5013481;28;20030;-73
2022/01/11 01:30:01;;;;;;;17.33;6.15;;;;;;;;;;5032108;28;20025;-73
2022/01/11 01:32:27;;;;;;;13.38;5.10;;;;;;;;;;5029278;28;20025;-72
2022/01/11 01:34:57;;;;;;;8.52;4.47;;;;;;;;;;5028763;28;20074;-71
2022/01/11 01:37:24;;;;;;;9.67;3.37;;;;;;;;;;5028721;28;20409;-72
2022/01/11 01:39:50;;;;;;;6.72;3.03;;;;;;;;;;5028651;28;20022;-73
2022/01/11 01:42:21;;;;;;;7.70;3.53;;;;;;;;;;5030967;28;20033;-73
2022/01/11 01:44:48;;;;;;;11.85;5.50;;;;;;;;;;5030119;28;20479;-73
2022/01/11 01:47:14;;;;;;;16.52;7.10;;;;;;;;;;5027286;28;20049;-73
2022/01/11 01:49:41;;;;;;;13.18;5.93;;;;;;;;;;5028608;28;20032;-73
2022/01/11 01:52:07;;;;;;;15.70;7.13;;;;;;;;;;5028547;28;20021;-73
2022/01/11 01:54:34;;;;;;;18.00;8.27;;;;;;;;;;5012701;28;20017;-72
2022/01/11 01:57:00;;;;;;;18.52;8.68;;;;;;;;;;5031965;28;20017;-73
2022/01/11 01:59:27;;;;;;;27.00;9.32;;;;;;;;;;5028494;28;20034;-73
2022/01/11 02:01:54;;;;;;;16.23;5.97;;;;;;;;;;5029691;28;20025;-73
2022/01/11 02:04:20;;;;;;;17.83;7.45;;;;;;;;;;5028665;28;20032;-72
2022/01/11 02:06:47;;;;;;;12.77;5.75;;;;;;;;;;5028438;28;20384;-73
2022/01/11 02:09:17;;;;;;;13.98;6.70;;;;;;;;;;5029485;28;20022;-73
2022/01/11 02:11:44;;;;;;;14.80;7.68;;;;;;;;;;5029380;28;20393;-73
2022/01/11 02:14:10;;;;;;;15.10;6.03;;;;;;;;;;5028367;28;20445;-73
2022/01/11 02:16:36;;;;;;;13.45;6.88;;;;;;;;;;5028417;28;20102;-73
2022/01/11 02:19:03;;;;;;;19.50;8.13;;;;;;;;;;5028744;28;20029;-73
2022/01/11 02:21:29;;;;;;;16.40;8.10;;;;;;;;;;5029088;28;20403;-73
2022/01/11 02:23:57;;;;;;;16.73;7.88;;;;;;;;;;5030552;28;20036;-73
2022/01/11 02:26:23;;;;;;;17.35;7.57;;;;;;;;;;5028263;28;20032;-73
2022/01/11 02:28:51;;;;;;;17.30;6.85;;;;;;;;;;5030370;28;20029;-73
2022/01/11 02:31:18;;;;;;;16.83;6.32;;;;;;;;;;5031899;28;20024;-73
2022/01/11 02:33:46;;;;;;;18.25;6.15;;;;;;;;;;5032245;28;20033;-72
2022/01/11 02:36:15;;;;;;;14.30;6.13;;;;;;;;;;5033990;28;20028;-73
2022/01/11 02:38:41;;;;;;;28.25;8.68;;;;;;;;;;5033021;28;20034;-72
2022/01/11 02:41:07;;;;;;;14.35;6.50;;;;;;;;;;5033029;28;20036;-73
2022/01/11 02:43:34;;;;;;;12.57;6.45;;;;;;;;;;5031869;28;20025;-73
2022/01/11 02:46:01;;;;;;;16.02;6.32;;;;;;;;;;5031635;28;20046;-73
2022/01/11 02:48:28;;;;;;;15.18;6.30;;;;;;;;;;5033013;28;20045;-73
2022/01/11 02:50:55;;;;;;;13.05;6.75;;;;;;;;;;5033971;28;20474;-73
2022/01/11 02:53:21;;;;;;;14.88;6.63;;;;;;;;;;5031964;28;20037;-73
2022/01/11 02:55:47;;;;;;;13.85;7.93;;;;;;;;;;5031701;28;20475;-73
2022/01/11 02:58:14;;;;;;;16.95;7.63;;;;;;;;;;5031636;28;20036;-73
2022/01/11 03:00:40;;;;;;;14.35;7.13;;;;;;;;;;5031650;28;20103;-73
2022/01/11 03:03:14;;;;;;;17.40;6.75;;;;;;;;;;5034791;28;20031;-73
2022/01/11 03:05:48;;;;;;;18.27;7.50;;;;;;;;;;5032061;28;20035;-73
2022/01/11 03:08:15;;;;;;;15.18;6.63;;;;;;;;;;5031316;28;20051;-73
2022/01/11 03:10:42;;;;;;;20.08;6.90;;;;;;;;;;5029887;28;20033;-74
2022/01/11 03:13:09;;;;;;;16.75;7.43;;;;;;;;;;5031458;28;20028;-73
2022/01/11 03:15:36;;;;;;;19.50;8.48;;;;;;;;;;5031352;28;20025;-73
2022/01/11 03:18:04;;;;;;;20.05;8.15;;;;;;;;;;5034638;28;20030;-73
2022/01/11 03:20:31;;;;;;;22.50;8.98;;;;;;;;;;5032532;28;20043;-73
2022/01/11 03:22:58;;;;;;;16.90;7.93;;;;;;;;;;5031246;28;20052;-73
2022/01/11 03:25:25;;;;;;;17.10;7.82;;;;;;;;;;5031144;28;20405;-73
2022/01/11 03:27:51;;;;;;;16.60;6.75;;;;;;;;;;5031096;28;20030;-73
2022/01/11 03:30:18;;;;;;;13.20;5.72;;;;;;;;;;5033432;28;20104;-73
2022/01/11 03:32:45;;;;;;;16.25;7.30;;;;;;;;;;5032024;28;20025;-73
2022/01/11 03:35:11;;;;;;;10.45;4.82;;;;;;;;;;5030645;28;20494;-73
2022/01/11 03:37:38;;;;;;;9.55;4.05;;;;;;;;;;5030896;28;20082;-73
2022/01/11 03:40:06;;;;;;;6.70;2.58;;;;;;;;;;5030741;28;20414;-73
2022/01/11 03:42:33;;;;;;;8.25;2.80;;;;;;;;;;5015485;28;20037;-73
2022/01/11 03:45:00;;;;;;;9.80;2.92;;;;;;;;;;5033799;28;20021;-73
2022/01/11 03:47:27;;;;;;;7.22;2.70;;;;;;;;;;5030596;28;20045;-73
2022/01/11 03:49:53;;;;;;;10.52;2.90;;;;;;;;;;5030136;28;20509;-73
2022/01/11 03:52:20;;;;;;;4.03;2.38;;;;;;;;;;5030739;28;20401;-73
2022/01/11 03:57:22;;;;;;;8.18;3.10;;;;;;;;;;5031920;28;20053;-72
2022/01/11 03:59:49;;;;;;;10.30;4.40;;;;;;;;;;5033860;28;20505;-72
2022/01/11 04:02:15;;;;;;;13.10;4.68;;;;;;;;;;5030576;28;20036;-73
2022/01/11 04:04:41;;;;;;;10.52;4.30;;;;;;;;;;5029994;28;20071;-73
2022/01/11 04:07:08;;;;;;;12.73;5.22;;;;;;;;;;5030562;28;20037;-73
2022/01/11 04:09:34;;;;;;;12.45;4.60;;;;;;;;;;5030871;28;20021;-73
2022/01/11 04:12:01;;;;;;;11.07;4.18;;;;;;;;;;5029436;28;20025;-73
2022/01/11 04:14:27;;;;;;;11.13;4.10;;;;;;;;;;5030521;28;20025;-72
2022/01/11 04:16:54;;;;;;;10.65;4.10;;;;;;;;;;5030062;28;20487;-73
2022/01/11 04:19:21;;;;;;;12.10;4.32;;;;;;;;;;5029718;28;20028;-73
2022/01/11 04:21:47;;;;;;;10.88;4.25;;;;;;;;;;5030236;28;20030;-73
2022/01/11 04:24:14;;;;;;;8.18;3.60;;;;;;;;;;5032294;28;20029;-73
2022/01/11 04:26:41;;;;;;;11.15;4.15;;;;;;;;;;5029434;28;20038;-73
2022/01/11 04:29:07;;;;;;;5.38;3.70;;;;;;;;;;5029771;28;20425;-73
2022/01/11 04:31:33;;;;;;;6.72;3.97;;;;;;;;;;5029847;28;20025;-72
2022/01/11 04:34:00;;;;;;;9.40;4.88;;;;;;;;;;5028467;28;20030;-73
2022/01/11 04:36:26;;;;;;;11.25;5.28;;;;;;;;;;5030934;28;20025;-73
2022/01/11 04:38:53;;;;;;;10.80;5.63;;;;;;;;;;5032815;28;20030;-73
2022/01/11 04:41:19;;;;;;;16.15;6.22;;;;;;;;;;5028521;28;20014;-73
2022/01/11 04:43:45;;;;;;;12.20;5.70;;;;;;;;;;5029699;28;20495;-73
2022/01/11 04:46:18;;;;;;;19.48;6.00;;;;;;;;;;5029241;28;20391;-73
2022/01/11 04:48:45;;;;;;;12.65;5.05;;;;;;;;;;5029236;28;20018;-73
2022/01/11 04:51:11;;;;;;;10.50;4.50;;;;;;;;;;5031256;28;20025;-73
2022/01/11 04:53:38;;;;;;;6.35;3.17;;;;;;;;;;5031693;28;20376;-73
2022/01/11 04:56:04;;;;;;;6.68;3.72;;;;;;;;;;5029427;28;20025;-73
2022/01/11 04:58:31;;;;;;;6.97;3.60;;;;;;;;;;5029408;28;20035;-72
2022/01/11 05:00:58;;;;;;;9.40;3.67;;;;;;;;;;5028121;28;20360;-73
2022/01/11 05:03:24;;;;;;;10.30;3.78;;;;;;;;;;5030530;28;20037;-73
2022/01/11 05:05:50;;;;;;;7.13;2.95;;;;;;;;;;5031055;28;20026;-73
2022/01/11 05:08:17;;;;;;;5.88;2.83;;;;;;;;;;5028839;28;20048;-73
2022/01/11 05:10:43;;;;;;;6.90;2.97;;;;;;;;;;5029089;28;20028;-73
2022/01/11 05:13:11;;;;;;;7.40;2.83;;;;;;;;;;5028007;28;20508;-73
2022/01/11 05:15:38;;;;;;;6.05;2.63;;;;;;;;;;5028633;28;20083;-73
2022/01/11 05:18:04;;;;;;;6.75;2.83;;;;;;;;;;5032263;28;20025;-73
2022/01/11 05:20:31;;;;;;;5.03;2.30;;;;;;;;;;5029100;28;20039;-74
2022/01/11 05:22:57;;;;;;;3.55;2.42;;;;;;;;;;5028971;28;20029;-73
2022/01/11 05:25:23;;;;;;;9.35;2.60;;;;;;;;;;5027645;28;20025;-73
2022/01/11 05:27:50;;;;;;;5.65;2.65;;;;;;;;;;5029038;28;20025;-73
2022/01/11 05:30:16;;;;;;;7.93;3.30;;;;;;;;;;5030784;28;20022;-73
2022/01/11 05:32:43;;;;;;;10.63;4.80;;;;;;;;;;5029796;28;20029;-73
2022/01/11 05:35:10;;;;;;;23.40;9.90;;;;;;;;;;5028845;28;20379;-73
2022/01/11 05:37:36;;;;;;;19.42;9.43;;;;;;;;;;5028735;28;20249;-73
2022/01/11 05:40:04;;;;;;;12.13;5.20;;;;;;;;;;5028894;28;20021;-73
2022/01/11 05:42:30;;;;;;;6.80;4.43;;;;;;;;;;5029543;28;20021;-73
2022/01/11 05:44:57;;;;;;;11.48;5.07;;;;;;;;;;5030859;28;20030;-73
2022/01/11 05:47:24;;;;;;;8.95;3.72;;;;;;;;;;5028199;28;20044;-73
2022/01/11 05:49:50;;;;;;;8.40;3.75;;;;;;;;;;5029038;28;20079;-73
2022/01/11 05:52:16;;;;;;;8.13;4.55;;;;;;;;;;5028901;28;20036;-73
2022/01/11 05:54:43;;;;;;;26.85;10.30;;;;;;;;;;5029693;28;20018;-73
2022/01/11 05:57:09;;;;;;;18.90;9.45;;;;;;;;;;5031481;28;20033;-73
2022/01/11 05:59:36;;;;;;;17.65;10.23;;;;;;;;;;5028824;28;20486;-73
2022/01/11 06:02:04;;;;;;;83.50;39.22;;;;;;;;;;5029158;28;20025;-73
2022/01/11 06:04:30;;;;;;;152.80;59.00;;;;;;;;;;5032662;28;20021;-73
2022/01/11 06:06:56;;;;;;;88.00;32.03;;;;;;;;;;5032456;28;20422;-73
2022/01/11 06:09:26;;;;;;;91.00;30.40;;;;;;;;;;5034432;28;20552;-73
2022/01/11 06:11:56;;;;;;;70.65;25.00;;;;;;;;;;5034831;28;20024;-72
2022/01/11 06:14:22;;;;;;;59.80;21.23;;;;;;;;;;5032543;28;20021;-72
2022/01/11 06:16:49;;;;;;;82.07;27.88;;;;;;;;;;5059071;28;20036;-73
2022/01/11 06:19:15;;;;;;;59.95;23.15;;;;;;;;;;5022086;28;20418;-73
2022/01/11 06:21:41;;;;;;;32.55;11.85;;;;;;;;;;5032534;28;20445;-72
2022/01/11 06:24:08;;;;;;;15.55;7.45;;;;;;;;;;5035050;28;20092;-72
2022/01/11 06:26:34;;;;;;;13.65;6.80;;;;;;;;;;5032457;28;20029;-73
2022/01/11 06:29:02;;;;;;;16.27;7.38;;;;;;;;;;5031817;28;20034;-72
2022/01/11 06:31:30;;;;;;;10.75;5.22;;;;;;;;;;5032036;28;20079;-73
2022/01/11 06:33:56;;;;;;;9.43;4.25;;;;;;;;;;5033781;28;20031;-73
2022/01/11 06:36:23;;;;;;;8.32;3.70;;;;;;;;;;5033977;28;20018;-73
2022/01/11 06:38:49;;;;;;;8.50;3.33;;;;;;;;;;5033598;28;20395;-73
2022/01/11 06:41:16;;;;;;;6.10;3.63;;;;;;;;;;5031923;28;20028;-73
2022/01/11 06:43:42;;;;;;;5.10;2.88;;;;;;;;;;5031562;28;20029;-73
2022/01/11 06:46:08;;;;;;;4.25;2.58;;;;;;;;;;5031675;28;20072;-73
2022/01/11 06:48:35;;;;;;;9.20;3.47;;;;;;;;;;5032279;28;20038;-72
2022/01/11 06:51:02;;;;;;;11.85;4.03;;;;;;;;;;5031068;28;20032;-73
2022/01/11 06:53:29;;;;;;;9.13;3.65;;;;;;;;;;5031635;28;20028;-73
2022/01/11 06:55:56;;;;;;;9.90;4.90;;;;;;;;;;5031780;28;20022;-73
2022/01/11 06:58:22;;;;;;;22.67;12.40;;;;;;;;;;5031110;28;20017;-73
2022/01/11 07:00:49;;;;;;;17.10;7.72;;;;;;;;;;5030487;28;20034;-73
2022/01/11 07:03:15;;;;;;;14.05;6.32;;;;;;;;;;5033525;28;20524;-73
2022/01/11 07:05:42;;;;;;;11.85;5.03;;;;;;;;;;5033120;28;20396;-73
2022/01/11 07:08:09;;;;;;;9.82;4.90;;;;;;;;;;5030930;28;20068;-73
2022/01/11 07:10:35;;;;;;;11.27;4.72;;;;;;;;;;5029893;28;20026;-73
2022/01/11 07:13:02;;;;;;;11.48;6.07;;;;;;;;;;5031951;28;20034;-73
2022/01/11 07:15:29;;;;;;;11.60;4.78;;;;;;;;;;5031230;28;20519;-73
2022/01/11 07:17:56;;;;;;;15.15;5.35;;;;;;;;;;5042696;28;20021;-71
2022/01/11 07:20:22;;;;;;;16.27;6.85;;;;;;;;;;5030992;28;20458;-72
2022/01/11 07:22:49;;;;;;;14.18;7.20;;;;;;;;;;5030870;28;20474;-72
2022/01/11 07:25:16;;;;;;;16.65;7.40;;;;;;;;;;5031112;28;20040;-72
2022/01/11 07:27:42;;;;;;;15.88;6.53;;;;;;;;;;5037078;28;20040;-72
2022/01/11 07:30:09;;;;;;;17.17;8.55;;;;;;;;;;5034037;28;20029;-72
2022/01/11 07:32:35;;;;;;;16.05;7.28;;;;;;;;;;5030014;28;20078;-71
2022/01/11 07:35:03;;;;;;;17.70;8.15;;;;;;;;;;5030750;28;20032;-72
2022/01/11 07:37:29;;;;;;;14.75;6.63;;;;;;;;;;5036327;28;20033;-72
2022/01/11 07:39:56;;;;;;;13.02;6.75;;;;;;;;;;5030775;28;20044;-72
2022/01/11 07:42:22;;;;;;;11.73;6.07;;;;;;;;;;5031110;28;20083;-72
2022/01/11 07:44:51;;;;;;;13.02;5.90;;;;;;;;;;5033575;28;20025;-71
2022/01/11 07:47:21;;;;;;;20.83;9.48;;;;;;;;;;5030192;28;20033;-72
2022/01/11 07:49:47;;;;;;;26.80;10.40;;;;;;;;;;5029082;28;20398;-72
2022/01/11 07:52:14;;;;;;;17.15;8.48;;;;;;;;;;5030075;28;20028;-71
2022/01/11 07:54:40;;;;;;;22.00;10.10;;;;;;;;;;5031428;28;20029;-72
2022/01/11 07:57:07;;;;;;;18.30;8.82;;;;;;;;;;5033282;28;20498;-72
2022/01/11 07:59:33;;;;;;;14.57;8.10;;;;;;;;;;5030330;28;20036;-72
2022/01/11 08:01:59;;;;;;;14.10;7.95;;;;;;;;;;5028803;28;20025;-72
2022/01/11 08:04:31;;;;;;;12.85;6.88;;;;;;;;;;5030362;28;20032;-72
2022/01/11 08:06:58;;;;;;;16.38;8.15;;;;;;;;;;5029394;28;21096;-71
2022/01/11 08:09:25;;;;;;;15.85;7.60;;;;;;;;;;5032769;28;20022;-72
2022/01/11 08:11:51;;;;;;;17.75;7.20;;;;;;;;;;5030080;28;20090;-73
2022/01/11 08:14:17;;;;;;;14.88;6.72;;;;;;;;;;5029983;28;20032;-73
2022/01/11 08:16:44;;;;;;;12.63;6.15;;;;;;;;;;5036500;28;20037;-73
2022/01/11 08:19:10;;;;;;;11.70;5.50;;;;;;;;;;5029788;28;20029;-74
2022/01/11 08:21:36;;;;;;;9.52;5.05;;;;;;;;;;5029796;28;20030;-73
2022/01/11 08:24:03;;;;;;;16.70;5.70;;;;;;;;;;5032687;28;20033;-72
2022/01/11 08:26:29;;;;;;;11.82;4.78;;;;;;;;;;5029607;28;20029;-73
2022/01/11 08:28:56;;;;;;;11.80;6.00;;;;;;;;;;5029568;28;20036;-73
2022/01/11 08:31:22;;;;;;;9.80;5.00;;;;;;;;;;5030549;28;20035;-73
2022/01/11 08:33:48;;;;;;;9.38;5.05;;;;;;;;;;5029810;28;20021;-74
2022/01/11 08:36:15;;;;;;;10.52;4.82;;;;;;;;;;5042317;28;20039;-74
2022/01/11 08:38:41;;;;;;;11.90;4.40;;;;;;;;;;5031759;28;20070;-73
2022/01/11 08:41:08;;;;;;;10.43;5.18;;;;;;;;;;5032914;28;20068;-73
2022/01/11 08:43:34;;;;;;;14.13;4.93;;;;;;;;;;5028801;28;20025;-74
2022/01/11 08:46:04;;;;;;;11.30;4.80;;;;;;;;;;5028833;28;20052;-74
2022/01/11 08:48:32;;;;;;;9.23;3.90;;;;;;;;;;5033995;28;20037;-73
2022/01/11 08:50:58;;;;;;;10.82;4.88;;;;;;;;;;5031945;28;20029;-73
2022/01/11 08:53:24;;;;;;;12.65;4.78;;;;;;;;;;5028337;28;20029;-73
2022/01/11 08:55:51;;;;;;;10.98;5.60;;;;;;;;;;5031966;28;20389;-72
2022/01/11 08:58:20;;;;;;;8.27;5.05;;;;;;;;;;5028981;28;20029;-72
2022/01/11 09:00:47;;;;;;;10.60;4.80;;;;;;;;;;5030018;28;20022;-73
2022/01/11 09:03:14;;;;;;;9.75;4.93;;;;;;;;;;5031646;28;20033;-73
2022/01/11 09:05:40;;;;;;;10.20;5.40;;;;;;;;;;5029646;28;20048;-73
2022/01/11 09:08:07;;;;;;;10.57;5.57;;;;;;;;;;5028463;28;20049;-71
2022/01/11 09:10:33;;;;;;;9.63;6.00;;;;;;;;;;5029114;28;20094;-72
2022/01/11 09:12:59;;;;;;;10.85;6.22;;;;;;;;;;5028826;28;20040;-73
2022/01/11 09:15:26;;;;;;;27.10;7.82;;;;;;;;;;5030465;28;20038;-73
2022/01/11 09:17:52;;;;;;;32.38;8.35;;;;;;;;;;5031324;28;20037;-74
2022/01/11 09:20:19;;;;;;;67.50;8.25;;;;;;;;;;5042581;28;20039;-73
2022/01/11 09:22:46;;;;;;;20.88;6.05;;;;;;;;;;5041260;28;20025;-73
2022/01/11 09:25:15;;;;;;;46.67;8.10;;;;;;;;;;5033584;28;20029;-73
2022/01/11 09:27:41;;;;;;;10.90;4.85;;;;;;;;;;5029915;28;20045;-73
2022/01/11 09:30:09;;;;;;;19.20;5.50;;;;;;;;;;5032212;28;20033;-72
2022/01/11 09:32:36;;;;;;;18.98;5.40;;;;;;;;;;5034008;28;20029;-71
2022/01/11 09:35:04;;;;;;;10.75;5.28;;;;;;;;;;5029786;28;20021;-73
2022/01/11 09:37:30;;;;;;;14.63;5.70;;;;;;;;;;5028104;28;20056;-73
2022/01/11 09:39:57;;;;;;;16.40;5.65;;;;;;;;;;5028652;28;20403;-73
2022/01/11 09:42:23;;;;;;;13.27;5.65;;;;;;;;;;5035802;28;20033;-73
2022/01/11 09:44:50;;;;;;;12.63;5.32;;;;;;;;;;5024029;28;20056;-74
2022/01/11 09:47:16;;;;;;;10.73;6.78;;;;;;;;;;5032107;28;20033;-73
2022/01/11 09:49:44;;;;;;;12.60;7.80;;;;;;;;;;5029447;28;20045;-74
2022/01/11 09:52:12;;;;;;;17.85;9.50;;;;;;;;;;5035747;28;20562;-73
2022/01/11 09:54:39;;;;;;;15.50;8.82;;;;;;;;;;5027919;28;20031;-73
2022/01/11 09:57:06;;;;;;;17.25;8.82;;;;;;;;;;5042192;28;20405;-73
2022/01/11 09:59:33;;;;;;;21.25;9.13;;;;;;;;;;5029423;28;20021;-73
2022/01/11 10:01:59;;;;;;;17.83;9.63;;;;;;;;;;5028331;28;20040;-73
2022/01/11 10:04:27;;;;;;;18.27;10.27;;;;;;;;;;5030142;28;20056;-74
2022/01/11 10:06:59;;;;;;;21.20;9.77;;;;;;;;;;5027018;28;20044;-74
2022/01/11 10:09:27;;;;;;;16.77;9.43;;;;;;;;;;5029161;28;20026;-73
2022/01/11 10:11:55;;;;;;;19.45;10.75;;;;;;;;;;5029573;28;20032;-74
2022/01/11 10:14:26;;;;;;;19.58;10.50;;;;;;;;;;5026678;28;20040;-73
2022/01/11 10:17:10;;;;;;;15.82;10.65;;;;;;;;;;5027478;28;20025;-73
2022/01/11 10:19:41;;;;;;;20.05;11.02;;;;;;;;;;5028866;28;20022;-73
2022/01/11 10:22:08;;;;;;;22.27;10.70;;;;;;;;;;5027629;28;20034;-73
2022/01/11 10:24:42;;;;;;;16.23;10.27;;;;;;;;;;5012667;28;20036;-73
2022/01/11 10:27:17;;;;;;;18.13;9.65;;;;;;;;;;5027163;28;20018;-73
2022/01/11 10:29:50;;;;;;;15.63;8.65;;;;;;;;;;5035340;28;20032;-74
2022/01/11 10:32:23;;;;;;;18.10;9.15;;;;;;;;;;5032515;28;20055;-74
2022/01/11 10:34:51;;;;;;;14.73;8.07;;;;;;;;;;5027558;28;20397;-73
2022/01/11 10:37:27;;;;;;;16.15;8.38;;;;;;;;;;5029179;28;20031;-73
2022/01/11 10:40:00;;;;;;;11.23;6.85;;;;;;;;;;5029573;28;20491;-73
2022/01/11 10:42:33;;;;;;;11.45;6.82;;;;;;;;;;5028386;28;20025;-73
2022/01/11 10:45:04;;;;;;;10.30;6.05;;;;;;;;;;5030353;28;20021;-73
2022/01/11 10:47:34;;;;;;;12.32;6.18;;;;;;;;;;5029510;28;20421;-73
2022/01/11 10:50:02;;;;;;;12.48;5.55;;;;;;;;;;5029324;28;20413;-73
2022/01/11 10:52:31;;;;;;;7.15;4.82;;;;;;;;;;5032810;28;20017;-73
2022/01/11 10:54:58;;;;;;;7.47;3.97;;;;;;;;;;5033651;28;20091;-73
2022/01/11 10:57:26;;;;;;;9.88;4.85;;;;;;;;;;5032876;28;20028;-74
2022/01/11 11:00:10;;;;;;;6.78;4.03;;;;;;;;;;5034213;28;20024;-73
2022/01/11 11:02:37;;;;;;;8.68;4.47;;;;;;;;;;5033627;28;20021;-73
2022/01/11 11:05:13;;;;;;;5.95;4.25;;;;;;;;;;5030216;28;20021;-73
2022/01/11 11:07:40;;;;;;;8.93;4.80;;;;;;;;;;5031715;28;20035;-73
2022/01/11 11:10:07;;;;;;;9.07;4.82;;;;;;;;;;5032373;28;20018;-73
2022/01/11 11:12:33;;;;;;;7.35;4.55;;;;;;;;;;5032785;28;20024;-74
2022/01/11 11:14:59;;;;;;;8.77;4.65;;;;;;;;;;5033915;28;20374;-73
2022/01/11 11:17:29;;;;;;;6.57;3.95;;;;;;;;;;5032422;28;20032;-74
2022/01/11 11:19:56;;;;;;;7.35;4.05;;;;;;;;;;5032166;28;20009;-73
2022/01/11 11:22:24;;;;;;;7.57;4.30;;;;;;;;;;5032402;28;20032;-73
2022/01/11 11:24:53;;;;;;;6.55;3.97;;;;;;;;;;5032204;28;20033;-73
2022/01/11 11:27:23;;;;;;;7.18;3.63;;;;;;;;;;5032429;28;20041;-73
2022/01/11 11:29:50;;;;;;;6.23;3.53;;;;;;;;;;5032255;28;20037;-73
2022/01/11 11:32:18;;;;;;;6.80;3.15;;;;;;;;;;5030744;28;20040;-73
2022/01/11 11:34:45;;;;;;;5.30;3.40;;;;;;;;;;5030359;28;20067;-73
2022/01/11 11:37:14;;;;;;;12.20;2.85;;;;;;;;;;5030266;28;20051;-73
2022/01/11 11:39:41;;;;;;;8.00;2.90;;;;;;;;;;5030644;28;20043;-73
2022/01/11 11:42:10;;;;;;;5.55;3.03;;;;;;;;;;5033816;28;20021;-73
2022/01/11 11:44:37;;;;;;;7.32;2.90;;;;;;;;;;5051292;28;20044;-73
2022/01/11 11:47:05;;;;;;;8.05;3.10;;;;;;;;;;5028446;28;20057;-73
2022/01/11 11:49:47;;;;;;;3.70;2.50;;;;;;;;;;5031566;28;20025;-73
2022/01/11 11:52:20;;;;;;;5.82;3.60;;;;;;;;;;5030754;28;20033;-73
2022/01/11 11:54:50;;;;;;;7.72;3.40;;;;;;;;;;5031110;28;20025;-73
2022/01/11 11:57:17;;;;;;;6.88;4.38;;;;;;;;;;5033097;28;20433;-73
2022/01/11 11:59:55;;;;;;;7.78;4.32;;;;;;;;;;5030420;28;20033;-73
2022/01/11 12:02:33;;;;;;;6.35;3.08;;;;;;;;;;5029817;28;20029;-73
2022/01/11 12:05:01;;;;;;;4.22;2.30;;;;;;;;;;5030277;28;20025;-73
2022/01/11 12:07:34;;;;;;;3.80;2.75;;;;;;;;;;5030288;28;20033;-73
2022/01/11 12:10:01;;;;;;;4.03;2.60;;;;;;;;;;5030140;28;20018;-73
2022/01/11 12:12:42;;;;;;;5.15;2.65;;;;;;;;;;5031610;28;20393;-73
2022/01/11 12:15:31;;;;;;;5.43;2.65;;;;;;;;;;5029717;28;20022;-73
2022/01/11 12:17:58;;;;;;;4.45;2.47;;;;;;;;;;5032208;28;20028;-73
2022/01/11 12:20:39;;;;;;;6.72;4.20;;;;;;;;;;5029812;28;20034;-73
2022/01/11 12:23:06;;;;;;;2.28;2.08;;;;;;;;;;5030064;28;20030;-73
2022/01/11 12:25:42;;;;;;;3.63;1.90;;;;;;;;;;5030816;28;20422;-73
2022/01/11 12:28:15;;;;;;;4.03;2.38;;;;;;;;;;5029566;28;20045;-73
2022/01/11 12:30:43;;;;;;;2.10;1.60;;;;;;;;;;5014460;28;20448;-73
2022/01/11 12:33:14;;;;;;;13.90;7.15;;;;;;;;;;5032785;28;20037;-73
2022/01/11 12:36:00;;;;;;;7.40;4.90;;;;;;;;;;5030320;28;20528;-73
2022/01/11 12:38:28;;;;;;;3.05;2.13;;;;;;;;;;5029581;28;20029;-73
2022/01/11 12:40:54;;;;;;;4.50;1.98;;;;;;;;;;5029555;28;20498;-73
2022/01/11 12:43:56;;;;;;;5.28;1.60;;;;;;;;;;5029881;28;20025;-73
2022/01/11 12:46:22;;;;;;;3.67;2.20;;;;;;;;;;5028824;28;20112;-73
2022/01/11 12:48:53;;;;;;;67.85;33.72;;;;;;;;;;5029089;28;20140;-73
2022/01/11 12:51:21;;;;;;;6.50;3.28;;;;;;;;;;5031720;28;20025;-73
2022/01/11 12:53:49;;;;;;;2.50;1.75;;;;;;;;;;5031161;28;20029;-73
2022/01/11 12:56:15;;;;;;;4.10;1.95;;;;;;;;;;5028782;28;20020;-73
2022/01/11 12:58:43;;;;;;;3.40;1.27;;;;;;;;;;5028965;28;20021;-73
2022/01/11 13:01:35;;;;;;;2.42;1.80;;;;;;;;;;5039601;28;20026;-73
2022/01/11 13:04:02;;;;;;;4.78;2.97;;;;;;;;;;5017551;28;20040;-73
2022/01/11 13:06:30;;;;;;;3.60;2.08;;;;;;;;;;5034867;28;20037;-73
2022/01/11 13:08:57;;;;;;;4.00;2.45;;;;;;;;;;5031472;28;20036;-73
2022/01/11 13:11:24;;;;;;;1.75;1.48;;;;;;;;;;5028282;28;20029;-73
2022/01/11 13:14:06;;;;;;;2.15;1.50;;;;;;;;;;5028596;28;20343;-72
2022/01/11 13:16:32;;;;;;;2.30;1.60;;;;;;;;;;5032533;28;20021;-73
2022/01/11 13:19:11;;;;;;;3.80;1.15;;;;;;;;;;5029077;28;20025;-73
2022/01/11 13:21:38;;;;;;;16.77;2.80;;;;;;;;;;5012568;28;20027;-73
2022/01/11 13:24:23;;;;;;;2.20;1.83;;;;;;;;;;5026779;28;20031;-72
2022/01/11 13:26:50;;;;;;;1.77;1.30;;;;;;;;;;5035887;28;20048;-73
2022/01/11 13:29:18;;;;;;;4.63;1.55;;;;;;;;;;5026832;28;20025;-73
2022/01/11 13:31:49;;;;;;;3.22;1.85;;;;;;;;;;5027998;28;20482;-73
2022/01/11 13:34:16;;;;;;;1.67;1.55;;;;;;;;;;5026810;28;20444;-73
2022/01/11 13:36:49;;;;;;;3.28;2.05;;;;;;;;;;5028363;28;20018;-73
2022/01/11 13:39:19;;;;;;;1.35;1.20;;;;;;;;;;5029305;28;20026;-73
2022/01/11 13:41:48;;;;;;;3.92;2.75;;;;;;;;;;5029065;28;20486;-73
2022/01/11 13:44:25;;;;;;;2.08;1.75;;;;;;;;;;5027298;28;20037;-73
2022/01/11 13:46:56;;;;;;;2.63;1.88;;;;;;;;;;5027761;28;20041;-73
2022/01/11 13:49:23;;;;;;;4.03;1.83;;;;;;;;;;5028200;28;20034;-73
2022/01/11 13:51:51;;;;;;;2.03;1.60;;;;;;;;;;5027812;28;20026;-72
2022/01/11 13:54:18;;;;;;;2.40;1.38;;;;;;;;;;5030554;28;20041;-72
2022/01/11 13:56:45;;;;;;;2.97;2.00;;;;;;;;;;5029127;28;20479;-72
2022/01/11 13:59:13;;;;;;;1.38;1.27;;;;;;;;;;5027919;28;20029;-73
2022/01/11 14:01:39;;;;;;;2.67;1.65;;;;;;;;;;5029144;28;20025;-72
2022/01/11 14:04:15;;;;;;;1.73;1.55;;;;;;;;;;5039635;28;20043;-71
2022/01/11 14:06:43;;;;;;;8.38;3.72;;;;;;;;;;5012998;28;20032;-72
2022/01/11 14:09:18;;;;;;;5.60;2.08;;;;;;;;;;5031189;28;20025;-72
2022/01/11 14:12:03;;;;;;;3.92;2.60;;;;;;;;;;5030743;28;20405;-72
2022/01/11 14:14:30;;;;;;;3.33;2.30;;;;;;;;;;5027685;28;20026;-73
2022/01/11 14:16:56;;;;;;;4.30;2.40;;;;;;;;;;5029082;28;20021;-73
2022/01/11 14:19:23;;;;;;;1.88;1.27;;;;;;;;;;5037586;28;20028;-73
2022/01/11 14:21:55;;;;;;;1.52;1.42;;;;;;;;;;5029467;28;20028;-73
2022/01/11 14:24:21;;;;;;;;;;;;;;;;;;5033093;28;20536;-73
2022/01/11 14:26:47;;;;;;;6.57;1.30;;;;;;;;;;5031528;28;19916;-73
2022/01/11 14:29:18;;;;;;;1.55;1.08;;;;;;;;;;5032018;28;20033;-72
2022/01/11 14:31:44;;;;;;;2.58;1.08;;;;;;;;;;5035557;28;20544;-73
2022/01/11 14:34:11;;;;;;;2.30;1.30;;;;;;;;;;5032650;28;20350;-73
2022/01/11 14:36:38;;;;;;;1.60;1.02;;;;;;;;;;5016495;28;20086;-73
2022/01/11 14:39:14;;;;;;;2.40;1.20;;;;;;;;;;5036043;28;20032;-73
2022/01/11 14:41:48;;;;;;;3.95;1.20;;;;;;;;;;5035821;28;20029;-73
2022/01/11 14:44:16;;;;;;;3.55;1.30;;;;;;;;;;5030597;28;20030;-73
2022/01/11 14:46:46;;;;;;;2.45;1.25;;;;;;;;;;5032633;28;20042;-73